Terminal Aerodrome Forecast
Issued by NWS Melbourne, FL

Home | Current Version | Previous Version | Text Only | Print | Product List | Glossary On
Versions: 1 2 3 4 5 6 7 8 9 10 11 12
000
FTUS42 KMLB 292320
TAFVRB
TAF
KVRB 292320Z 3000/3024 07011KT P6SM SCT040
     FM300100 08007KT P6SM VCSH SCT035
     FM301400 09010KT P6SM SCT030
      TEMPO 3014/3016 BKN030=

USA.gov is the U.S. government's official web portal to all federal, state and local government web resources and services.